Time;durP1;ratioP1;P1;durP2;ratioP2;P2;SDS_P1;SDS_P2;PMS_P1;PMS_P2;Temp;Humidity;BMP_temperature;BMP_pressure;BME280_temperature;BME280_humidity;BME280_pressure;Samples;Min_cycle;Max_cycle;Signal;HPM_P1;HPM_P2
2023/03/14 00:00:00;;;;;;;0.90;0.80;;;14.90;64.50;;;;;;5050422;28;20468;-85
2023/03/14 00:02:27;;;;;;;1.97;1.50;;;14.80;64.40;;;;;;5055896;28;20453;-86
2023/03/14 00:04:56;;;;;;;1.97;1.20;;;14.90;65.10;;;;;;5031596;28;20843;-86
2023/03/14 00:07:24;;;;;;;1.60;0.90;;;14.90;64.60;;;;;;5068124;28;20444;-86
2023/03/14 00:09:51;;;;;;;1.10;0.70;;;15.00;64.40;;;;;;5051565;28;20448;-86
2023/03/14 00:12:19;;;;;;;1.87;0.90;;;15.10;64.20;;;;;;5038112;28;20973;-86
2023/03/14 00:14:46;;;;;;;1.43;1.20;;;14.80;64.60;;;;;;5042904;28;20477;-86
2023/03/14 00:17:13;;;;;;;2.43;1.60;;;14.90;64.70;;;;;;5038108;28;20475;-86
2023/03/14 00:19:40;;;;;;;1.33;1.23;;;14.70;65.40;;;;;;5042687;28;20958;-85
2023/03/14 00:22:07;;;;;;;1.80;1.10;;;14.80;65.50;;;;;;5049520;28;20456;-87
2023/03/14 00:24:34;;;;;;;1.83;1.23;;;14.90;65.00;;;;;;5068255;28;20896;-86
2023/03/14 00:27:01;;;;;;;1.83;1.10;;;14.80;65.60;;;;;;5049794;28;20451;-86
2023/03/14 00:29:29;;;;;;;1.30;1.00;;;14.90;65.10;;;;;;5042835;28;20447;-86
2023/03/14 00:31:56;;;;;;;1.47;1.00;;;14.90;64.70;;;;;;5042561;28;20445;-85
2023/03/14 00:34:23;;;;;;;4.87;0.90;;;14.70;64.70;;;;;;5068759;28;20848;-86
2023/03/14 00:36:50;;;;;;;1.37;1.00;;;14.40;65.80;;;;;;5054890;28;20462;-86
2023/03/14 00:39:17;;;;;;;2.50;1.10;;;13.90;68.00;;;;;;5060973;28;20491;-86
2023/03/14 00:41:44;;;;;;;1.10;1.00;;;13.70;69.20;;;;;;5052360;28;20461;-86
2023/03/14 00:44:11;;;;;;;1.57;0.90;;;13.90;69.30;;;;;;5042277;28;20483;-85
2023/03/14 00:46:39;;;;;;;2.13;1.63;;;14.00;68.20;;;;;;5053034;28;21006;-86
2023/03/14 00:49:06;;;;;;;1.30;0.90;;;14.00;68.40;;;;;;5033914;28;20456;-86
2023/03/14 00:51:33;;;;;;;1.27;1.00;;;14.00;68.60;;;;;;5059267;28;20441;-84
2023/03/14 00:54:00;;;;;;;3.00;1.17;;;13.90;68.20;;;;;;5024939;28;20476;-86
2023/03/14 00:56:27;;;;;;;1.13;0.90;;;14.10;68.90;;;;;;5041739;28;20445;-85
2023/03/14 00:58:56;;;;;;;1.57;0.90;;;14.20;67.50;;;;;;5052316;28;20467;-85
2023/03/14 01:01:24;;;;;;;1.20;1.00;;;14.20;67.40;;;;;;5059224;28;20455;-86
2023/03/14 01:03:54;;;;;;;1.10;1.00;;;14.30;67.30;;;;;;5043470;28;21193;-87
2023/03/14 01:06:23;;;;;;;1.23;0.90;;;14.30;66.70;;;;;;5057203;28;20460;-85
2023/03/14 01:08:50;;;;;;;3.40;1.00;;;14.40;66.40;;;;;;5038496;28;20433;-86
2023/03/14 01:11:19;;;;;;;1.10;0.90;;;14.50;65.80;;;;;;5024431;28;20462;-85
2023/03/14 01:13:47;;;;;;;2.30;1.10;;;14.40;66.40;;;;;;5069000;28;20487;-86
2023/03/14 01:16:15;;;;;;;1.87;1.00;;;14.20;65.90;;;;;;5038089;28;20439;-86
2023/03/14 01:18:44;;;;;;;1.83;0.93;;;14.20;66.80;;;;;;5054320;28;21011;-86
2023/03/14 01:21:14;;;;;;;1.63;0.90;;;14.30;66.40;;;;;;5059635;28;20524;-84
2023/03/14 01:23:42;;;;;;;1.10;1.00;;;14.30;66.30;;;;;;5035223;28;20469;-85
2023/03/14 01:26:11;;;;;;;2.13;1.17;;;13.90;66.70;;;;;;5036710;28;21725;-86
2023/03/14 01:28:38;;;;;;;1.37;1.10;;;14.10;66.90;;;;;;5036445;28;20445;-85
2023/03/14 01:31:06;;;;;;;0.93;0.80;;;14.10;66.60;;;;;;5049139;28;20447;-86
2023/03/14 01:33:33;;;;;;;1.03;0.93;;;13.80;67.30;;;;;;5033524;28;21120;-86
2023/03/14 01:36:01;;;;;;;0.97;0.87;;;14.10;66.10;;;;;;5027311;28;20845;-86
2023/03/14 01:38:31;;;;;;;1.03;0.90;;;14.40;65.50;;;;;;5028994;28;20463;-84
2023/03/14 01:40:58;;;;;;;1.50;1.03;;;14.30;65.10;;;;;;5044604;28;20487;-86
2023/03/14 01:43:26;;;;;;;1.57;0.87;;;14.50;65.70;;;;;;5030452;28;20464;-85
2023/03/14 01:46:26;;;;;;;2.17;1.00;;;14.40;64.70;;;;;;5045159;28;20966;-86
2023/03/14 01:49:04;;;;;;;1.93;0.80;;;14.20;65.70;;;;;;5030628;28;20448;-86
2023/03/14 01:51:39;;;;;;;2.73;1.00;;;14.10;65.50;;;;;;5062163;28;20444;-86
2023/03/14 01:54:12;;;;;;;1.00;0.90;;;14.20;65.50;;;;;;5029962;28;21096;-86
2023/03/14 01:56:42;;;;;;;1.90;0.90;;;14.40;64.70;;;;;;5056660;28;21091;-87
2023/03/14 01:59:11;;;;;;;1.27;0.90;;;14.50;64.30;;;;;;5022017;28;20922;-86
2023/03/14 02:01:41;;;;;;;2.50;0.80;;;14.40;62.80;;;;;;5045517;28;20486;-85
2023/03/14 02:04:09;;;;;;;1.20;0.87;;;14.20;64.70;;;;;;5044990;28;20472;-86
2023/03/14 02:06:45;;;;;;;2.97;1.10;;;14.30;64.30;;;;;;5038696;28;20441;-86
2023/03/14 02:09:14;;;;;;;2.33;0.90;;;14.40;63.70;;;;;;5045211;28;20528;-86
2023/03/14 02:11:41;;;;;;;6.80;1.00;;;14.60;63.70;;;;;;5025705;28;20936;-85
2023/03/14 02:14:30;;;;;;;1.10;1.00;;;14.50;63.70;;;;;;5042342;28;20536;-86
2023/03/14 02:17:13;;;;;;;2.33;0.97;;;14.70;62.60;;;;;;5024959;28;20538;-86
2023/03/14 02:20:18;;;;;;;2.10;1.10;;;14.60;63.10;;;;;;5060243;28;20480;-85
2023/03/14 02:22:53;;;;;;;1.53;0.83;;;14.70;62.70;;;;;;5060488;28;20452;-84
2023/03/14 02:25:32;;;;;;;2.90;1.30;;;14.70;61.90;;;;;;5046049;28;20452;-85
2023/03/14 02:28:01;;;;;;;2.80;1.17;;;14.70;62.00;;;;;;5058848;28;21013;-86
2023/03/14 02:30:30;;;;;;;1.10;1.00;;;14.80;61.70;;;;;;5027958;28;21102;-86
2023/03/14 02:33:00;;;;;;;1.90;1.00;;;14.90;61.80;;;;;;5053579;28;20979;-84
2023/03/14 02:35:30;;;;;;;1.53;0.97;;;15.00;61.80;;;;;;5028640;28;20805;-85
2023/03/14 02:38:04;;;;;;;3.97;1.00;;;15.10;61.20;;;;;;5020472;28;20456;-85
2023/03/14 02:40:36;;;;;;;1.20;0.90;;;14.80;61.70;;;;;;5050277;28;20464;-85
2023/03/14 02:43:04;;;;;;;2.60;1.30;;;14.60;63.20;;;;;;5046834;28;21252;-86
2023/03/14 02:45:50;;;;;;;1.30;1.10;;;14.50;63.90;;;;;;5061151;28;20468;-85
2023/03/14 02:48:22;;;;;;;2.17;1.00;;;14.30;64.80;;;;;;5047132;28;20437;-86
2023/03/14 02:50:53;;;;;;;1.77;1.10;;;14.40;65.40;;;;;;5045449;28;20459;-86
2023/03/14 02:53:25;;;;;;;3.97;1.00;;;14.30;64.30;;;;;;5031396;28;20616;-86
2023/03/14 02:55:55;;;;;;;0.93;0.83;;;14.30;65.20;;;;;;5041598;28;20505;-83
2023/03/14 02:58:25;;;;;;;7.43;1.20;;;14.30;64.60;;;;;;5024273;28;20882;-86
2023/03/14 03:00:58;;;;;;;1.10;1.00;;;14.30;65.20;;;;;;5046289;28;20447;-85
2023/03/14 03:03:25;;;;;;;3.60;1.23;;;14.00;65.40;;;;;;5052849;28;20474;-86
2023/03/14 03:05:54;;;;;;;3.67;2.10;;;13.80;66.10;;;;;;5062756;28;20988;-86
2023/03/14 03:08:22;;;;;;;1.90;1.50;;;13.60;67.30;;;;;;5030822;28;20445;-85
2023/03/14 03:10:49;;;;;;;2.20;1.07;;;13.70;66.80;;;;;;5045148;28;20455;-87
2023/03/14 03:13:17;;;;;;;1.80;1.43;;;13.90;66.70;;;;;;5061357;28;20480;-87
2023/03/14 03:15:48;;;;;;;2.80;1.30;;;13.90;66.00;;;;;;5054509;28;20448;-86
2023/03/14 03:18:15;;;;;;;3.17;1.20;;;13.90;64.90;;;;;;5055851;28;21243;-87
2023/03/14 03:20:43;;;;;;;2.23;1.00;;;14.00;65.60;;;;;;5051647;28;20444;-85
2023/03/14 03:23:10;;;;;;;3.60;1.07;;;14.10;65.70;;;;;;5029008;28;20470;-86
2023/03/14 03:25:39;;;;;;;1.60;1.20;;;14.30;64.30;;;;;;5020853;28;20436;-86
2023/03/14 03:28:07;;;;;;;1.53;1.10;;;14.10;64.20;;;;;;5044913;28;20529;-85
2023/03/14 03:30:39;;;;;;;1.20;1.00;;;14.10;64.90;;;;;;5039241;28;20449;-85
2023/03/14 03:33:08;;;;;;;1.93;1.13;;;13.80;64.90;;;;;;5027235;28;20471;-86
2023/03/14 03:35:35;;;;;;;4.10;1.23;;;13.90;66.10;;;;;;5045694;28;20888;-86
2023/03/14 03:38:02;;;;;;;1.57;1.10;;;14.00;65.20;;;;;;5021334;28;20962;-86
2023/03/14 03:40:30;;;;;;;3.73;1.20;;;14.10;66.20;;;;;;5036538;28;20478;-84
2023/03/14 03:42:57;;;;;;;2.87;1.10;;;14.10;66.00;;;;;;5043761;28;20518;-85
2023/03/14 03:45:24;;;;;;;1.50;1.20;;;14.20;65.50;;;;;;5037993;28;20460;-85
2023/03/14 03:47:55;;;;;;;1.17;1.07;;;14.00;66.30;;;;;;5056848;28;20729;-87
2023/03/14 03:50:25;;;;;;;1.83;1.13;;;13.90;66.80;;;;;;5062073;28;20513;-86
2023/03/14 03:52:51;;;;;;;1.97;1.20;;;13.90;66.90;;;;;;5060441;28;20455;-86
2023/03/14 03:55:18;;;;;;;2.00;1.10;;;13.80;67.20;;;;;;5043980;28;20815;-86
2023/03/14 03:57:46;;;;;;;1.43;1.03;;;13.80;67.40;;;;;;5017972;28;20440;-86
2023/03/14 04:00:14;;;;;;;2.23;1.20;;;13.80;67.50;;;;;;5053729;28;20562;-87
2023/03/14 04:02:44;;;;;;;2.00;1.20;;;14.00;66.80;;;;;;5043623;28;20436;-85
2023/03/14 04:05:14;;;;;;;2.80;1.50;;;14.10;66.20;;;;;;5069853;28;20482;-85
2023/03/14 04:07:49;;;;;;;1.33;1.13;;;14.10;65.80;;;;;;5051957;28;20527;-86
2023/03/14 04:10:22;;;;;;;1.90;1.30;;;14.20;65.50;;;;;;5035356;28;20440;-86
2023/03/14 04:13:05;;;;;;;1.20;1.10;;;14.00;65.90;;;;;;5043514;28;20464;-87
2023/03/14 04:15:34;;;;;;;1.50;1.30;;;14.10;65.90;;;;;;5038091;28;20441;-84
2023/03/14 04:18:05;;;;;;;5.60;2.60;;;14.20;64.90;;;;;;5034108;28;20456;-85
2023/03/14 04:20:35;;;;;;;4.57;1.33;;;14.10;65.00;;;;;;5043933;28;20480;-85
2023/03/14 04:23:04;;;;;;;1.60;1.50;;;14.10;65.00;;;;;;5054217;28;20447;-86
2023/03/14 04:25:31;;;;;;;2.43;1.70;;;14.30;64.10;;;;;;5062344;28;20501;-84
2023/03/14 04:27:59;;;;;;;2.33;2.13;;;14.30;64.60;;;;;;5027145;28;20452;-85
2023/03/14 04:30:29;;;;;;;5.83;2.00;;;14.30;64.30;;;;;;5043752;28;20964;-86
2023/03/14 04:33:03;;;;;;;1.73;1.63;;;14.40;64.30;;;;;;5025981;28;20520;-86
2023/03/14 04:35:32;;;;;;;6.47;2.50;;;14.30;63.50;;;;;;5038489;28;20461;-84
2023/03/14 04:38:05;;;;;;;1.73;1.47;;;14.20;63.70;;;;;;5040918;28;20466;-86
2023/03/14 04:40:33;;;;;;;2.87;1.73;;;14.20;64.40;;;;;;5040243;28;20542;-86
2023/03/14 04:43:05;;;;;;;6.00;1.70;;;14.30;63.60;;;;;;5017917;28;20493;-86
2023/03/14 04:45:32;;;;;;;6.40;1.60;;;14.10;63.00;;;;;;5036490;28;20460;-84
2023/03/14 04:48:01;;;;;;;1.60;1.50;;;14.10;63.10;;;;;;5022271;28;20440;-86
2023/03/14 04:50:28;;;;;;;7.60;5.40;;;14.00;63.10;;;;;;5035496;28;20463;-85
2023/03/14 04:52:55;;;;;;;4.13;1.50;;;14.10;62.80;;;;;;5015931;28;20449;-85
2023/03/14 04:55:23;;;;;;;2.07;1.80;;;14.10;62.20;;;;;;5047645;28;20522;-85
2023/03/14 04:57:50;;;;;;;3.73;2.93;;;14.00;63.50;;;;;;5039359;28;20448;-85
2023/03/14 05:00:19;;;;;;;3.90;1.97;;;14.10;63.00;;;;;;5056089;28;21340;-85
2023/03/14 05:03:06;;;;;;;3.10;1.70;;;14.20;62.20;;;;;;5046050;28;21030;-86
2023/03/14 05:05:33;;;;;;;4.53;3.87;;;14.20;61.20;;;;;;5066888;28;20894;-83
2023/03/14 05:08:32;;;;;;;3.73;2.23;;;14.20;61.70;;;;;;5036759;28;20470;-86
2023/03/14 05:11:20;;;;;;;2.00;1.80;;;14.20;61.20;;;;;;5037439;28;21079;-86
2023/03/14 05:14:05;;;;;;;2.90;1.60;;;14.40;61.40;;;;;;5056023;28;20484;-86
2023/03/14 05:16:32;;;;;;;2.07;1.40;;;14.30;60.10;;;;;;5065517;28;20480;-86
2023/03/14 05:19:22;;;;;;;4.90;1.97;;;13.90;60.80;;;;;;5055723;28;20443;-86
2023/03/14 05:22:19;;;;;;;2.33;1.83;;;14.00;61.20;;;;;;5035161;28;20436;-85
2023/03/14 05:24:58;;;;;;;13.20;5.83;;;13.90;61.70;;;;;;5023418;28;20801;-85
2023/03/14 05:27:50;;;;;;;2.67;2.47;;;14.00;60.90;;;;;;5035433;28;21157;-86
2023/03/14 05:30:53;;;;;;;3.57;1.43;;;13.90;60.30;;;;;;4959052;28;20455;-86
2023/03/14 05:33:19;;;;;;;1.53;1.20;;;13.90;60.20;;;;;;5013851;28;20463;-86
2023/03/14 05:36:06;;;;;;;2.60;2.03;;;14.10;61.00;;;;;;5058218;28;20444;-86
2023/03/14 05:38:57;;;;;;;1.83;1.73;;;14.10;60.10;;;;;;5036918;28;20452;-83
2023/03/14 05:41:43;;;;;;;1.73;1.10;;;14.30;59.50;;;;;;5029552;28;20456;-85
2023/03/14 05:44:27;;;;;;;2.10;0.93;;;14.50;58.60;;;;;;5025668;28;20457;-86
2023/03/14 05:47:12;;;;;;;6.23;1.10;;;14.20;59.20;;;;;;5053065;28;20453;-86
2023/03/14 05:49:57;;;;;;;3.43;1.30;;;14.30;59.90;;;;;;5065377;28;20441;-84
2023/03/14 05:52:34;;;;;;;3.63;1.40;;;14.30;59.10;;;;;;5024264;28;20449;-83
2023/03/14 05:55:08;;;;;;;2.53;1.07;;;14.30;59.30;;;;;;5038845;28;20564;-86
2023/03/14 05:57:35;;;;;;;1.40;1.17;;;14.20;59.90;;;;;;5049432;28;20467;-84
2023/03/14 06:00:23;;;;;;;1.70;1.30;;;14.20;59.60;;;;;;5035946;28;20447;-86
2023/03/14 06:03:02;;;;;;;5.70;1.27;;;14.40;59.30;;;;;;5038866;28;20455;-84
2023/03/14 06:05:33;;;;;;;2.50;1.20;;;14.40;59.50;;;;;;5026443;28;20818;-85
2023/03/14 06:08:02;;;;;;;2.40;1.00;;;14.50;59.20;;;;;;5056985;28;20454;-85
2023/03/14 06:10:31;;;;;;;1.63;0.87;;;14.40;58.50;;;;;;5054069;28;20543;-85
2023/03/14 06:12:58;;;;;;;4.30;1.30;;;14.10;58.10;;;;;;5024242;28;21009;-84
2023/03/14 06:15:27;;;;;;;4.20;1.40;;;14.10;58.80;;;;;;5035281;28;20463;-85
2023/03/14 06:17:56;;;;;;;2.50;1.40;;;13.90;59.20;;;;;;5050799;28;20482;-86
2023/03/14 06:20:24;;;;;;;4.53;3.90;;;13.60;59.80;;;;;;5019920;28;20457;-86
2023/03/14 06:22:51;;;;;;;5.20;2.07;;;13.70;59.80;;;;;;5060181;28;20455;-84
2023/03/14 06:25:18;;;;;;;11.93;10.70;;;13.80;59.90;;;;;;5043927;28;20455;-85
2023/03/14 06:27:47;;;;;;;2.00;1.90;;;14.00;59.50;;;;;;5046849;28;20447;-85
2023/03/14 06:30:16;;;;;;;2.17;1.20;;;14.10;59.30;;;;;;5060716;28;20514;-85
2023/03/14 06:32:45;;;;;;;2.97;1.67;;;14.00;58.60;;;;;;5043566;28;20459;-85
2023/03/14 06:35:14;;;;;;;1.67;1.10;;;14.20;59.20;;;;;;5043483;28;20472;-85
2023/03/14 06:37:44;;;;;;;2.10;0.90;;;14.10;59.10;;;;;;5027579;28;20440;-85
2023/03/14 06:40:12;;;;;;;1.30;0.90;;;14.20;58.50;;;;;;5043614;28;20502;-85
2023/03/14 06:42:58;;;;;;;3.60;0.90;;;14.20;58.40;;;;;;5043061;28;20544;-83
2023/03/14 06:45:28;;;;;;;2.50;1.10;;;14.40;58.40;;;;;;5022583;28;20455;-85
2023/03/14 06:47:58;;;;;;;1.87;0.90;;;14.20;58.70;;;;;;5029491;28;20466;-85
2023/03/14 06:50:32;;;;;;;2.63;1.20;;;14.00;59.60;;;;;;5044258;28;21080;-85
2023/03/14 06:53:00;;;;;;;6.27;1.60;;;13.90;59.20;;;;;;5056218;28;20528;-84
2023/03/14 06:55:27;;;;;;;1.60;1.50;;;14.00;58.90;;;;;;5028675;28;20451;-85
2023/03/14 06:57:54;;;;;;;5.40;1.20;;;14.10;58.50;;;;;;5067690;28;20525;-84
2023/03/14 07:00:22;;;;;;;5.07;1.20;;;14.10;59.10;;;;;;5025313;28;20460;-85
2023/03/14 07:02:53;;;;;;;3.60;1.10;;;14.30;58.60;;;;;;5051298;28;20541;-85
2023/03/14 07:05:29;;;;;;;1.40;1.30;;;14.40;57.70;;;;;;5028646;28;20455;-84
2023/03/14 07:07:57;;;;;;;4.53;1.40;;;14.50;58.00;;;;;;5043434;28;20458;-84
2023/03/14 07:10:24;;;;;;;2.10;1.37;;;14.30;57.30;;;;;;5029516;28;20444;-85
2023/03/14 07:12:52;;;;;;;1.73;1.23;;;14.10;58.70;;;;;;5028350;28;20449;-83
2023/03/14 07:15:21;;;;;;;1.37;0.87;;;14.20;58.50;;;;;;5028257;28;20447;-85
2023/03/14 07:17:52;;;;;;;2.47;1.13;;;14.20;57.90;;;;;;5042454;28;20455;-85
2023/03/14 07:20:22;;;;;;;2.13;0.83;;;14.20;58.30;;;;;;5028336;28;20531;-85
2023/03/14 07:22:51;;;;;;;0.80;0.67;;;14.40;58.40;;;;;;5061268;28;20543;-85
2023/03/14 07:25:22;;;;;;;1.67;1.30;;;14.50;58.70;;;;;;5039208;28;20476;-86
2023/03/14 07:27:49;;;;;;;2.30;1.20;;;14.60;58.00;;;;;;5044730;28;21195;-85
2023/03/14 07:30:16;;;;;;;4.27;1.30;;;14.70;57.80;;;;;;5060927;28;20456;-85
2023/03/14 07:32:43;;;;;;;1.10;0.90;;;14.70;57.40;;;;;;5026223;28;21054;-85
2023/03/14 07:35:10;;;;;;;1.10;0.90;;;14.80;58.00;;;;;;5070010;28;20460;-85
2023/03/14 07:37:39;;;;;;;2.13;1.00;;;14.70;57.60;;;;;;5039080;28;20945;-83
2023/03/14 07:40:10;;;;;;;4.10;1.23;;;14.60;57.50;;;;;;5025058;28;20464;-85
2023/03/14 07:42:38;;;;;;;4.23;1.40;;;14.70;57.40;;;;;;5054057;28;21164;-85
2023/03/14 07:45:15;;;;;;;1.60;1.00;;;14.80;57.60;;;;;;5038619;28;20545;-85
2023/03/14 07:47:42;;;;;;;1.40;0.90;;;14.80;57.10;;;;;;5052277;28;20457;-85
2023/03/14 07:50:10;;;;;;;2.67;0.90;;;14.80;57.10;;;;;;5054243;28;20458;-85
2023/03/14 07:52:37;;;;;;;2.00;1.70;;;14.50;57.80;;;;;;5029346;28;20510;-84
2023/03/14 07:55:05;;;;;;;1.23;1.13;;;14.50;58.00;;;;;;5034407;28;20464;-84
2023/03/14 07:57:33;;;;;;;1.27;1.17;;;14.70;58.30;;;;;;5021750;28;20457;-85
2023/03/14 08:00:00;;;;;;;1.33;1.10;;;14.90;57.90;;;;;;5045302;28;20474;-85
2023/03/14 08:02:27;;;;;;;1.53;1.17;;;15.00;56.90;;;;;;5053853;28;20451;-86
2023/03/14 08:04:54;;;;;;;1.27;1.10;;;15.00;56.80;;;;;;5052049;28;20477;-85
2023/03/14 08:07:21;;;;;;;1.90;1.40;;;15.10;56.60;;;;;;5061762;28;20463;-86
2023/03/14 08:09:48;;;;;;;1.97;0.90;;;15.20;56.70;;;;;;5051770;28;20448;-86
2023/03/14 08:12:15;;;;;;;2.93;1.63;;;14.70;57.70;;;;;;5043277;28;20460;-85
2023/03/14 08:14:44;;;;;;;3.43;1.33;;;14.60;57.70;;;;;;5028993;28;20556;-85
2023/03/14 08:17:10;;;;;;;3.53;1.40;;;14.40;58.20;;;;;;5052723;28;20452;-86
2023/03/14 08:19:38;;;;;;;1.97;1.10;;;14.50;59.20;;;;;;5039139;28;20456;-85
2023/03/14 08:22:05;;;;;;;2.90;1.10;;;14.60;58.40;;;;;;5023159;28;20494;-86
2023/03/14 08:24:32;;;;;;;2.33;1.53;;;14.60;59.20;;;;;;5053612;28;20463;-85
2023/03/14 08:26:59;;;;;;;2.07;1.53;;;14.70;58.30;;;;;;5056891;28;20452;-84
2023/03/14 08:29:26;;;;;;;2.47;1.40;;;14.70;59.00;;;;;;5060419;28;20448;-85
2023/03/14 08:31:54;;;;;;;2.40;1.50;;;14.60;59.40;;;;;;5043350;28;20448;-85
2023/03/14 08:34:21;;;;;;;1.30;1.03;;;14.70;59.20;;;;;;5035119;28;20576;-86
2023/03/14 08:36:56;;;;;;;2.17;1.20;;;14.80;59.40;;;;;;5040121;28;20496;-86
2023/03/14 08:39:24;;;;;;;2.47;1.37;;;14.30;60.70;;;;;;5059493;28;20970;-86
2023/03/14 08:41:51;;;;;;;3.00;1.53;;;14.40;61.40;;;;;;5041901;28;20476;-85
2023/03/14 08:44:18;;;;;;;2.30;0.97;;;14.50;61.20;;;;;;5065678;28;20549;-86
2023/03/14 08:46:45;;;;;;;2.60;1.10;;;14.60;61.40;;;;;;5030789;28;20559;-86
2023/03/14 08:49:14;;;;;;;1.53;1.27;;;14.70;60.40;;;;;;5049975;28;20489;-86
2023/03/14 08:51:41;;;;;;;1.30;1.20;;;14.70;61.00;;;;;;5037988;28;20522;-86
2023/03/14 08:54:10;;;;;;;2.33;1.73;;;14.70;59.80;;;;;;5026007;28;20480;-86
2023/03/14 08:56:38;;;;;;;5.00;1.20;;;14.80;60.70;;;;;;5035249;28;20451;-85
2023/03/14 08:59:05;;;;;;;3.87;1.50;;;14.80;60.70;;;;;;5057560;28;20467;-86
2023/03/14 09:01:33;;;;;;;1.10;1.00;;;14.80;60.90;;;;;;5035819;28;20464;-85
2023/03/14 09:04:00;;;;;;;2.13;1.40;;;14.70;60.80;;;;;;5021059;28;20471;-85
2023/03/14 09:06:37;;;;;;;1.93;1.07;;;14.80;61.20;;;;;;5056461;28;20452;-85
2023/03/14 09:09:04;;;;;;;1.40;1.10;;;14.70;60.90;;;;;;5034154;28;20484;-84
2023/03/14 09:11:31;;;;;;;1.20;1.10;;;14.80;60.80;;;;;;5042784;28;21170;-85
2023/03/14 09:13:58;;;;;;;2.70;1.20;;;15.10;61.20;;;;;;5040518;28;20507;-84
2023/03/14 09:16:26;;;;;;;5.33;2.73;;;14.90;59.80;;;;;;5027899;28;20445;-86
2023/03/14 09:18:54;;;;;;;1.10;1.00;;;15.00;60.10;;;;;;5058445;28;20452;-85
2023/03/14 09:21:21;;;;;;;8.57;7.13;;;15.00;59.90;;;;;;5041847;28;20460;-85
2023/03/14 09:23:49;;;;;;;1.53;1.07;;;15.10;61.40;;;;;;5053130;28;20468;-86
2023/03/14 09:26:16;;;;;;;3.50;1.20;;;15.10;60.80;;;;;;5050789;28;21195;-85
2023/03/14 09:28:43;;;;;;;2.63;1.40;;;15.10;59.90;;;;;;5039062;28;20444;-86
2023/03/14 09:31:12;;;;;;;1.77;1.30;;;15.00;59.70;;;;;;5058350;28;20826;-86
2023/03/14 09:33:39;;;;;;;1.83;1.00;;;15.10;59.30;;;;;;5067172;28;20463;-86
2023/03/14 09:36:07;;;;;;;1.83;1.40;;;15.10;59.20;;;;;;5058949;28;20459;-86
2023/03/14 09:38:34;;;;;;;2.03;1.23;;;15.10;59.80;;;;;;5025032;28;20460;-85
2023/03/14 09:41:11;;;;;;;1.77;0.90;;;15.20;60.30;;;;;;5038996;28;21403;-85
2023/03/14 09:43:39;;;;;;;3.87;3.10;;;15.10;60.20;;;;;;5055123;28;20510;-86
2023/03/14 09:46:09;;;;;;;4.10;1.40;;;15.30;60.20;;;;;;5034446;28;20448;-86
2023/03/14 09:48:36;;;;;;;7.43;2.67;;;15.50;59.10;;;;;;5062640;28;20436;-85
2023/03/14 09:51:12;;;;;;;3.13;1.33;;;15.40;58.90;;;;;;5040596;28;20455;-85
2023/03/14 09:53:42;;;;;;;1.40;0.90;;;15.20;60.10;;;;;;5069896;28;20464;-86
2023/03/14 09:56:15;;;;;;;1.20;1.00;;;15.30;59.20;;;;;;5038538;28;20436;-84
2023/03/14 09:58:43;;;;;;;2.90;1.07;;;15.40;58.90;;;;;;5059531;28;20453;-85
2023/03/14 10:01:15;;;;;;;2.17;1.30;;;15.30;59.60;;;;;;5061014;28;20491;-86
2023/03/14 10:03:45;;;;;;;1.43;1.33;;;15.30;59.80;;;;;;5063116;28;20460;-85
2023/03/14 10:06:13;;;;;;;3.53;3.23;;;15.20;59.60;;;;;;5064294;28;20441;-85
2023/03/14 10:08:41;;;;;;;2.97;2.77;;;15.20;59.90;;;;;;5033714;28;20440;-84
2023/03/14 10:11:16;;;;;;;2.60;1.93;;;15.40;59.90;;;;;;5035598;28;20456;-86
2023/03/14 10:14:05;;;;;;;3.87;1.20;;;15.40;59.60;;;;;;5073305;28;20487;-83
2023/03/14 10:16:35;;;;;;;2.50;1.83;;;15.20;59.80;;;;;;5026729;28;20432;-86
2023/03/14 10:19:08;;;;;;;1.23;0.90;;;15.00;60.90;;;;;;5055563;28;20455;-85
2023/03/14 10:21:42;;;;;;;2.10;1.80;;;14.90;61.30;;;;;;5048106;28;21035;-84
2023/03/14 10:24:22;;;;;;;4.13;1.40;;;14.80;61.20;;;;;;5059292;28;20530;-83
2023/03/14 10:26:54;;;;;;;1.83;1.67;;;15.10;62.00;;;;;;5061016;28;20460;-84
2023/03/14 10:29:22;;;;;;;9.23;2.63;;;15.50;61.90;;;;;;5061085;28;20455;-87
2023/03/14 10:31:53;;;;;;;4.13;3.53;;;15.80;60.10;;;;;;5045767;28;20437;-86
2023/03/14 10:34:24;;;;;;;3.07;2.87;;;16.00;59.10;;;;;;5055408;28;20562;-86
2023/03/14 10:36:56;;;;;;;1.57;1.37;;;16.20;59.50;;;;;;5061638;28;20493;-86
2023/03/14 10:39:43;;;;;;;2.93;2.00;;;16.20;59.90;;;;;;5075455;28;20476;-88
2023/03/14 10:42:24;;;;;;;1.47;1.13;;;16.40;59.10;;;;;;5057425;28;20552;-86
2023/03/14 10:44:56;;;;;;;1.43;0.70;;;16.20;58.70;;;;;;5087038;28;20551;-87
2023/03/14 10:47:25;;;;;;;1.83;1.00;;;16.40;58.30;;;;;;5062697;28;20445;-87
2023/03/14 10:49:52;;;;;;;8.10;5.80;;;16.20;57.90;;;;;;5073588;28;20458;-87
2023/03/14 10:52:23;;;;;;;1.93;1.00;;;16.10;58.40;;;;;;5061431;28;20521;-86
2023/03/14 10:54:55;;;;;;;3.07;2.00;;;16.10;58.50;;;;;;5061093;28;20493;-86
2023/03/14 10:57:24;;;;;;;2.57;2.37;;;16.10;58.80;;;;;;5052552;28;20437;-87
2023/03/14 10:59:52;;;;;;;1.00;0.90;;;16.30;58.50;;;;;;5066722;28;20468;-86
2023/03/14 11:02:36;;;;;;;1.03;0.93;;;16.20;59.40;;;;;;5070510;28;20461;-87
2023/03/14 11:05:13;;;;;;;11.63;0.97;;;16.00;59.70;;;;;;5052085;28;20553;-88
2023/03/14 11:07:42;;;;;;;1.07;0.97;;;16.00;60.30;;;;;;5046649;28;20494;-88
2023/03/14 11:10:18;;;;;;;1.97;0.90;;;15.70;60.50;;;;;;5056672;28;20445;-85
2023/03/14 11:13:02;;;;;;;1.03;0.93;;;15.80;61.20;;;;;;5044778;28;20517;-88
2023/03/14 11:15:33;;;;;;;2.80;1.57;;;15.90;60.30;;;;;;5066841;28;20440;-88
2023/03/14 11:18:27;;;;;;;1.30;1.20;;;16.10;60.20;;;;;;5061581;28;20445;-88
2023/03/14 11:20:59;;;;;;;1.40;1.27;;;16.20;59.30;;;;;;5046750;28;20464;-89
2023/03/14 11:23:33;;;;;;;2.20;1.73;;;15.90;59.90;;;;;;5060746;28;20499;-88
2023/03/14 11:26:09;;;;;;;1.37;1.27;;;15.60;60.80;;;;;;5045814;28;20448;-87
2023/03/14 11:28:40;;;;;;;1.27;1.10;;;15.70;61.90;;;;;;5047392;28;20463;-87
2023/03/14 11:31:16;;;;;;;1.23;1.10;;;15.80;62.60;;;;;;5041371;28;20440;-86
2023/03/14 11:33:49;;;;;;;1.00;0.83;;;15.70;63.20;;;;;;5042826;28;20467;-87
2023/03/14 11:36:22;;;;;;;2.17;1.10;;;15.50;62.30;;;;;;5064256;28;20564;-87
2023/03/14 11:38:50;;;;;;;1.33;0.90;;;15.60;64.40;;;;;;5054566;28;20548;-86
2023/03/14 11:41:20;;;;;;;1.00;0.90;;;15.50;62.60;;;;;;5052030;28;20560;-88
2023/03/14 11:43:53;;;;;;;1.83;1.13;;;15.60;64.80;;;;;;5038200;28;20581;-88
2023/03/14 11:46:26;;;;;;;1.17;1.07;;;15.30;66.30;;;;;;5034099;28;20533;-86
2023/03/14 11:49:01;;;;;;;1.67;1.37;;;15.40;65.30;;;;;;5064030;28;20547;-86
2023/03/14 11:51:32;;;;;;;1.60;1.27;;;15.40;66.00;;;;;;5058482;28;20480;-87
2023/03/14 11:54:05;;;;;;;2.30;2.10;;;15.70;65.70;;;;;;5054587;28;20467;-86
2023/03/14 11:56:38;;;;;;;1.07;0.97;;;15.20;64.70;;;;;;5041352;28;20455;-87
2023/03/14 11:59:13;;;;;;;1.20;1.00;;;15.10;65.60;;;;;;5033285;28;20484;-87
2023/03/14 12:01:54;;;;;;;1.50;1.00;;;14.80;66.60;;;;;;5062611;28;20503;-87
2023/03/14 12:04:44;;;;;;;1.10;1.00;;;14.50;66.90;;;;;;5062873;28;20470;-87
2023/03/14 12:07:19;;;;;;;0.90;0.80;;;14.50;69.10;;;;;;5056689;28;21195;-87
2023/03/14 12:09:47;;;;;;;1.30;1.10;;;14.80;67.90;;;;;;5039634;28;20467;-87
2023/03/14 12:12:19;;;;;;;1.43;1.33;;;14.80;67.30;;;;;;5051272;28;20431;-87
2023/03/14 12:14:54;;;;;;;2.50;2.00;;;15.10;66.50;;;;;;5061549;28;20460;-87
2023/03/14 12:17:23;;;;;;;3.07;1.50;;;15.10;66.30;;;;;;5074392;28;20805;-85
2023/03/14 12:20:05;;;;;;;2.00;1.10;;;15.10;66.30;;;;;;5044862;28;20455;-88
2023/03/14 12:22:35;;;;;;;2.73;2.10;;;15.30;66.40;;;;;;5030934;28;20460;-87
2023/03/14 12:25:07;;;;;;;1.00;0.90;;;15.20;65.60;;;;;;5049916;28;20457;-88
2023/03/14 12:28:06;;;;;;;1.43;1.33;;;15.00;65.00;;;;;;5069431;28;20445;-87
2023/03/14 12:30:36;;;;;;;1.03;0.77;;;14.80;66.70;;;;;;5057991;28;20455;-87
2023/03/14 12:33:34;;;;;;;1.20;1.10;;;14.60;66.50;;;;;;5043776;28;20487;-86
2023/03/14 12:36:22;;;;;;;1.37;1.20;;;14.50;66.50;;;;;;5036659;28;20512;-87
2023/03/14 12:39:00;;;;;;;1.00;0.90;;;14.70;67.00;;;;;;4997136;28;20482;-87
2023/03/14 12:41:37;;;;;;;1.60;1.50;;;14.90;66.50;;;;;;5063396;28;20527;-86
2023/03/14 12:44:40;;;;;;;3.17;1.77;;;15.10;66.30;;;;;;5062103;28;20985;-86
2023/03/14 12:47:43;;;;;;;0.93;0.87;;;15.30;66.30;;;;;;5059112;28;20458;-86
2023/03/14 12:50:20;;;;;;;1.10;1.00;;;15.10;65.60;;;;;;5048158;28;20448;-86
2023/03/14 12:53:11;;;;;;;2.77;2.53;;;15.10;66.10;;;;;;5059961;28;20532;-88
2023/03/14 12:55:44;;;;;;;2.20;1.30;;;15.20;66.30;;;;;;5049173;28;20449;-87
2023/03/14 12:58:18;;;;;;;2.17;2.00;;;14.90;66.00;;;;;;5057531;28;20524;-86
2023/03/14 13:00:56;;;;;;;2.00;1.80;;;15.00;66.90;;;;;;5052899;28;21023;-86
2023/03/14 13:03:27;;;;;;;2.17;1.10;;;15.00;67.30;;;;;;5052685;28;20482;-87
2023/03/14 13:05:58;;;;;;;2.27;2.07;;;15.00;67.50;;;;;;5065323;28;20460;-88
2023/03/14 13:08:37;;;;;;;0.90;0.80;;;15.00;67.80;;;;;;5045676;28;21976;-86